CSN392 VGHS-ZGGG
Flight info
| Callsign | CSN392 |
|---|---|
| Flight time | 3h 0m |
| Altitude | 41000 |
| Route | NUPUR1C NUPUR W14 DAKID DCT CTG A599 LINSO/K0896S1250 A599 GULOT W146 XSJ W148 LXI A599 GYA GYA7 |
| Aircraft | A359/H-SDE2E3GHIJ3J4J5LM1ORWXY/LB1D1 |
Departure
| Time | 2026-04-29 18:29 |
|---|---|
| Airport | Hazrat Shahjalal International Airport (VGHS) |
Arrival
| Time | 2026-04-29 21:29 |
|---|---|
| Airport | Guangzhou Baiyun International Airport (ZGGG) |
| Time | Latitude | Longitude | Altitude | Speed | Heading |
|---|---|---|---|---|---|
| 2026-04-29 17:57 | 23.84734 | 90.40410 | 42 ft | 0 kts | 40° |
| 2026-04-29 18:20 | 23.84725 | 90.40402 | 16 ft | 4 kts | 49° |
| 2026-04-29 18:20 | 23.84711 | 90.40385 | 16 ft | 3 kts | 39° |
| 2026-04-29 18:20 | 23.84691 | 90.40370 | 40 ft | 4 kts | 15° |
| 2026-04-29 18:21 | 23.84671 | 90.40367 | 40 ft | 4 kts | 336° |
| 2026-04-29 18:21 | 23.84651 | 90.40382 | 38 ft | 4 kts | 314° |
| 2026-04-29 18:21 | 23.84633 | 90.40402 | 40 ft | 2 kts | 320° |
| 2026-04-29 18:21 | 23.84632 | 90.40403 | 39 ft | 0 kts | 320° |
| 2026-04-29 18:24 | 23.84639 | 90.40396 | 42 ft | 4 kts | 321° |
| 2026-04-29 18:24 | 23.84681 | 90.40363 | 42 ft | 11 kts | 325° |
| 2026-04-29 18:24 | 23.84712 | 90.40327 | 42 ft | 1 kts | 281° |
| 2026-04-29 18:25 | 23.84704 | 90.40314 | 42 ft | 5 kts | 231° |
| 2026-04-29 18:25 | 23.84656 | 90.40249 | 41 ft | 14 kts | 232° |
| 2026-04-29 18:25 | 23.84645 | 90.40218 | 42 ft | 4 kts | 276° |
| 2026-04-29 18:25 | 23.84711 | 90.40146 | 42 ft | 21 kts | 324° |
| 2026-04-29 18:26 | 23.84857 | 90.40030 | 42 ft | 29 kts | 324° |
| 2026-04-29 18:26 | 23.85019 | 90.39902 | 42 ft | 30 kts | 324° |
| 2026-04-29 18:26 | 23.85204 | 90.39754 | 42 ft | 36 kts | 323° |
| 2026-04-29 18:26 | 23.85404 | 90.39599 | 42 ft | 34 kts | 323° |
| 2026-04-29 18:27 | 23.85588 | 90.39448 | 42 ft | 32 kts | 324° |
| 2026-04-29 18:27 | 23.85737 | 90.39294 | 42 ft | 28 kts | 289° |
| 2026-04-29 18:27 | 23.85703 | 90.39162 | 42 ft | 18 kts | 234° |
| 2026-04-29 18:27 | 23.85611 | 90.39025 | 42 ft | 26 kts | 232° |
| 2026-04-29 18:28 | 23.85512 | 90.38894 | 41 ft | 17 kts | 212° |
| 2026-04-29 18:28 | 23.85456 | 90.38896 | 41 ft | 4 kts | 144° |
| 2026-04-29 18:28 | 23.85401 | 90.38940 | 42 ft | 39 kts | 144° |
| 2026-04-29 18:28 | 23.84968 | 90.39281 | 42 ft | 111 kts | 144° |
| 2026-04-29 18:29 | 23.84167 | 90.39911 | 69 ft | 168 kts | 143° |
| 2026-04-29 18:29 | 23.83546 | 90.40417 | 608 ft | 164 kts | 144° |
| 2026-04-29 18:29 | 23.82332 | 90.41381 | 1683 ft | 169 kts | 146° |
| 2026-04-29 18:29 | 23.81301 | 90.42190 | 1987 ft | 196 kts | 147° |
| 2026-04-29 18:30 | 23.80135 | 90.43106 | 2404 ft | 216 kts | 147° |
| 2026-04-29 18:30 | 23.78816 | 90.44031 | 2763 ft | 240 kts | 152° |
| 2026-04-29 18:30 | 23.77341 | 90.45008 | 3417 ft | 252 kts | 152° |
| 2026-04-29 18:30 | 23.75823 | 90.46002 | 4223 ft | 257 kts | 153° |
| 2026-04-29 18:31 | 23.74274 | 90.47007 | 5049 ft | 261 kts | 153° |
| 2026-04-29 18:31 | 23.72691 | 90.48025 | 5783 ft | 268 kts | 153° |
| 2026-04-29 18:31 | 23.71052 | 90.49074 | 6513 ft | 275 kts | 153° |
| 2026-04-29 18:31 | 23.69385 | 90.50142 | 7271 ft | 280 kts | 153° |
| 2026-04-29 18:32 | 23.67695 | 90.51225 | 8102 ft | 283 kts | 153° |
| 2026-04-29 18:32 | 23.64236 | 90.53446 | 9790 ft | 293 kts | 153° |
| 2026-04-29 18:32 | 23.62470 | 90.54578 | 10318 ft | 306 kts | 153° |
| 2026-04-29 18:33 | 23.60563 | 90.55795 | 10651 ft | 328 kts | 153° |
| 2026-04-29 18:33 | 23.58529 | 90.57092 | 10932 ft | 348 kts | 153° |
| 2026-04-29 18:33 | 23.56383 | 90.58464 | 11279 ft | 363 kts | 152° |
| 2026-04-29 18:33 | 23.54176 | 90.59881 | 11864 ft | 370 kts | 152° |
| 2026-04-29 18:34 | 23.51970 | 90.61301 | 12512 ft | 375 kts | 152° |
| 2026-04-29 18:34 | 23.51209 | 90.61790 | 12742 ft | 376 kts | 152° |
| 2026-04-29 18:34 | 23.47427 | 90.64220 | 13826 ft | 383 kts | 152° |
| 2026-04-29 18:34 | 23.45112 | 90.65703 | 14390 ft | 388 kts | 152° |
| 2026-04-29 18:35 | 23.42770 | 90.67202 | 14951 ft | 393 kts | 152° |
| 2026-04-29 18:35 | 23.40397 | 90.68720 | 15514 ft | 397 kts | 152° |
| 2026-04-29 18:35 | 23.37994 | 90.70255 | 16095 ft | 402 kts | 152° |
| 2026-04-29 18:35 | 23.35593 | 90.71789 | 16661 ft | 406 kts | 152° |
| 2026-04-29 18:36 | 23.33137 | 90.73357 | 17250 ft | 410 kts | 152° |
| 2026-04-29 18:36 | 23.30662 | 90.74937 | 17833 ft | 415 kts | 152° |
| 2026-04-29 18:36 | 23.28157 | 90.76535 | 18383 ft | 419 kts | 152° |
| 2026-04-29 18:36 | 23.25628 | 90.78148 | 18941 ft | 422 kts | 153° |
| 2026-04-29 18:37 | 23.23087 | 90.79769 | 19499 ft | 425 kts | 153° |
| 2026-04-29 18:37 | 23.20526 | 90.81402 | 20090 ft | 428 kts | 153° |
| 2026-04-29 18:37 | 23.17946 | 90.83044 | 20666 ft | 431 kts | 153° |
| 2026-04-29 18:37 | 23.15380 | 90.84678 | 21222 ft | 434 kts | 153° |
| 2026-04-29 18:38 | 23.12758 | 90.86346 | 21764 ft | 438 kts | 153° |
| 2026-04-29 18:38 | 23.10113 | 90.88027 | 22286 ft | 442 kts | 153° |
| 2026-04-29 18:38 | 23.07445 | 90.89723 | 22806 ft | 446 kts | 153° |
| 2026-04-29 18:38 | 23.04749 | 90.91435 | 23318 ft | 451 kts | 153° |
| 2026-04-29 18:39 | 23.02029 | 90.93163 | 23747 ft | 455 kts | 153° |
| 2026-04-29 18:39 | 23.00216 | 90.94313 | 24041 ft | 457 kts | 153° |
| 2026-04-29 18:39 | 22.97454 | 90.96066 | 24504 ft | 460 kts | 153° |
| 2026-04-29 18:39 | 22.94677 | 90.97828 | 24977 ft | 464 kts | 153° |
| 2026-04-29 18:40 | 22.91872 | 90.99606 | 25465 ft | 467 kts | 153° |
| 2026-04-29 18:40 | 22.89047 | 91.01397 | 25963 ft | 471 kts | 153° |
| 2026-04-29 18:40 | 22.86210 | 91.03194 | 26459 ft | 474 kts | 153° |
| 2026-04-29 18:40 | 22.83350 | 91.05005 | 26958 ft | 477 kts | 153° |
| 2026-04-29 18:41 | 22.74684 | 91.10486 | 28387 ft | 487 kts | 152° |
| 2026-04-29 18:41 | 22.71744 | 91.12344 | 28882 ft | 490 kts | 152° |
| 2026-04-29 18:42 | 22.68787 | 91.14211 | 29318 ft | 494 kts | 152° |
| 2026-04-29 18:42 | 22.65812 | 91.16089 | 29773 ft | 497 kts | 152° |
| 2026-04-29 18:42 | 22.62810 | 91.17983 | 30150 ft | 500 kts | 152° |
| 2026-04-29 18:42 | 22.59797 | 91.19883 | 30536 ft | 502 kts | 152° |
| 2026-04-29 18:43 | 22.56765 | 91.21794 | 30920 ft | 504 kts | 152° |
| 2026-04-29 18:43 | 22.53764 | 91.23685 | 31282 ft | 506 kts | 152° |
| 2026-04-29 18:43 | 22.50701 | 91.25614 | 31627 ft | 509 kts | 152° |
| 2026-04-29 18:43 | 22.47632 | 91.27546 | 31973 ft | 511 kts | 152° |
| 2026-04-29 18:44 | 22.44545 | 91.29488 | 32313 ft | 512 kts | 152° |
| 2026-04-29 18:44 | 22.41456 | 91.31430 | 32649 ft | 514 kts | 152° |
| 2026-04-29 18:44 | 22.38438 | 91.33526 | 33061 ft | 516 kts | 146° |
| 2026-04-29 18:44 | 22.35737 | 91.36008 | 33559 ft | 516 kts | 137° |
| 2026-04-29 18:45 | 22.33397 | 91.38942 | 34036 ft | 517 kts | 128° |
| 2026-04-29 18:45 | 22.31533 | 91.42281 | 34402 ft | 519 kts | 117° |
| 2026-04-29 18:45 | 22.30241 | 91.45928 | 34782 ft | 520 kts | 108° |
| 2026-04-29 18:45 | 22.29407 | 91.49728 | 35144 ft | 521 kts | 102° |
| 2026-04-29 18:46 | 22.28856 | 91.53601 | 35509 ft | 521 kts | 98° |
| 2026-04-29 18:46 | 22.28446 | 91.57493 | 35860 ft | 521 kts | 97° |
| 2026-04-29 18:46 | 22.28081 | 91.61385 | 36208 ft | 521 kts | 97° |
| 2026-04-29 18:46 | 22.27715 | 91.65235 | 36556 ft | 520 kts | 97° |
| 2026-04-29 18:47 | 22.27322 | 91.69122 | 36893 ft | 519 kts | 98° |
| 2026-04-29 18:47 | 22.26905 | 91.72998 | 37230 ft | 519 kts | 98° |
| 2026-04-29 18:47 | 22.26470 | 91.76865 | 37552 ft | 518 kts | 98° |
| 2026-04-29 18:47 | 22.26103 | 91.80744 | 37841 ft | 519 kts | 94° |
| 2026-04-29 18:48 | 22.26168 | 91.84655 | 38133 ft | 521 kts | 85° |
| 2026-04-29 18:48 | 22.26568 | 91.88540 | 38419 ft | 521 kts | 83° |
| 2026-04-29 18:48 | 22.27061 | 91.92417 | 38659 ft | 521 kts | 82° |
| 2026-04-29 18:48 | 22.27596 | 91.96255 | 38880 ft | 521 kts | 82° |
| 2026-04-29 18:49 | 22.28154 | 92.00123 | 39101 ft | 521 kts | 81° |
| 2026-04-29 18:49 | 22.28714 | 92.03998 | 39325 ft | 521 kts | 81° |
| 2026-04-29 18:49 | 22.29268 | 92.07876 | 39553 ft | 520 kts | 81° |
| 2026-04-29 18:49 | 22.29807 | 92.11696 | 39776 ft | 520 kts | 82° |
| 2026-04-29 18:50 | 22.30346 | 92.15562 | 39997 ft | 520 kts | 81° |
| 2026-04-29 18:50 | 22.30880 | 92.19420 | 40226 ft | 519 kts | 81° |
| 2026-04-29 18:50 | 22.31411 | 92.23276 | 40446 ft | 519 kts | 81° |
| 2026-04-29 18:50 | 22.31940 | 92.27132 | 40665 ft | 518 kts | 81° |
| 2026-04-29 18:51 | 22.32467 | 92.30980 | 40825 ft | 519 kts | 81° |
| 2026-04-29 18:51 | 22.32995 | 92.34837 | 40846 ft | 518 kts | 81° |
| 2026-04-29 18:51 | 22.34043 | 92.42512 | 40857 ft | 518 kts | 81° |
| 2026-04-29 18:52 | 22.35092 | 92.50229 | 40859 ft | 519 kts | 82° |
| 2026-04-29 18:52 | 22.36141 | 92.57961 | 40867 ft | 519 kts | 81° |
| 2026-04-29 18:53 | 22.37179 | 92.65640 | 40873 ft | 520 kts | 82° |
| 2026-04-29 18:53 | 22.38220 | 92.73376 | 40884 ft | 520 kts | 82° |
| 2026-04-29 18:54 | 22.39262 | 92.81132 | 40895 ft | 521 kts | 82° |
| 2026-04-29 18:54 | 22.40308 | 92.88887 | 40903 ft | 521 kts | 82° |
| 2026-04-29 18:55 | 22.41353 | 92.96654 | 40917 ft | 522 kts | 82° |
| 2026-04-29 18:55 | 22.42395 | 93.04434 | 40925 ft | 523 kts | 82° |
| 2026-04-29 18:56 | 22.43425 | 93.12173 | 40941 ft | 523 kts | 82° |
| 2026-04-29 18:56 | 22.44459 | 93.19975 | 40953 ft | 524 kts | 82° |
| 2026-04-29 18:57 | 22.45489 | 93.27767 | 40959 ft | 524 kts | 82° |
| 2026-04-29 18:57 | 22.46516 | 93.35575 | 40965 ft | 524 kts | 82° |
| 2026-04-29 18:58 | 22.47533 | 93.43326 | 40967 ft | 524 kts | 82° |
| 2026-04-29 18:58 | 22.48552 | 93.51136 | 40959 ft | 524 kts | 82° |
| 2026-04-29 18:59 | 22.49571 | 93.58955 | 40951 ft | 525 kts | 83° |
| 2026-04-29 18:59 | 22.50586 | 93.66780 | 40941 ft | 524 kts | 83° |
| 2026-04-29 19:00 | 22.51597 | 93.74590 | 40927 ft | 524 kts | 83° |
| 2026-04-29 19:00 | 22.52604 | 93.82418 | 40908 ft | 524 kts | 83° |
| 2026-04-29 19:01 | 22.53599 | 93.90183 | 40896 ft | 524 kts | 83° |
| 2026-04-29 19:01 | 22.54597 | 93.98015 | 40887 ft | 524 kts | 83° |
| 2026-04-29 19:02 | 22.55424 | 94.04515 | 40873 ft | 524 kts | 83° |
| 2026-04-29 19:02 | 22.56582 | 94.13661 | 40866 ft | 523 kts | 83° |
| 2026-04-29 19:03 | 22.57566 | 94.21460 | 40867 ft | 523 kts | 83° |
| 2026-04-29 19:03 | 22.58547 | 94.29270 | 40862 ft | 523 kts | 83° |
| 2026-04-29 19:04 | 22.59519 | 94.37030 | 40860 ft | 522 kts | 83° |
| 2026-04-29 19:04 | 22.60490 | 94.44825 | 40854 ft | 523 kts | 83° |
| 2026-04-29 19:05 | 22.61459 | 94.52631 | 40853 ft | 523 kts | 83° |
| 2026-04-29 19:05 | 22.62419 | 94.60407 | 40847 ft | 522 kts | 83° |
| 2026-04-29 19:06 | 22.63381 | 94.68214 | 40845 ft | 522 kts | 83° |
| 2026-04-29 19:07 | 22.64809 | 94.79869 | 40841 ft | 522 kts | 83° |
| 2026-04-29 19:07 | 22.65761 | 94.87679 | 40841 ft | 523 kts | 83° |
| 2026-04-29 19:08 | 22.66709 | 94.95484 | 40837 ft | 523 kts | 83° |
| 2026-04-29 19:08 | 22.67653 | 95.03292 | 40837 ft | 523 kts | 83° |
| 2026-04-29 19:09 | 22.68596 | 95.11126 | 40838 ft | 523 kts | 83° |
| 2026-04-29 19:09 | 22.69527 | 95.18895 | 40831 ft | 523 kts | 83° |
| 2026-04-29 19:10 | 22.70461 | 95.26723 | 40832 ft | 523 kts | 83° |
| 2026-04-29 19:10 | 22.71392 | 95.34557 | 40831 ft | 523 kts | 83° |
| 2026-04-29 19:11 | 22.72315 | 95.42348 | 40829 ft | 524 kts | 83° |
| 2026-04-29 19:11 | 22.73239 | 95.50184 | 40831 ft | 524 kts | 83° |
| 2026-04-29 19:12 | 22.74159 | 95.58030 | 40828 ft | 524 kts | 83° |
| 2026-04-29 19:12 | 22.75076 | 95.65875 | 40829 ft | 524 kts | 83° |
| 2026-04-29 19:13 | 22.75981 | 95.73659 | 40832 ft | 524 kts | 83° |
| 2026-04-29 19:13 | 22.76890 | 95.81501 | 40830 ft | 524 kts | 83° |
| 2026-04-29 19:14 | 22.77795 | 95.89342 | 40835 ft | 524 kts | 83° |
| 2026-04-29 19:14 | 22.78690 | 95.97142 | 40840 ft | 524 kts | 83° |
| 2026-04-29 19:15 | 22.79588 | 96.04995 | 40853 ft | 524 kts | 83° |
| 2026-04-29 19:15 | 22.80484 | 96.12862 | 40864 ft | 524 kts | 83° |
| 2026-04-29 19:16 | 22.81374 | 96.20713 | 40871 ft | 524 kts | 83° |
| 2026-04-29 19:16 | 22.82255 | 96.28520 | 40877 ft | 524 kts | 83° |
| 2026-04-29 19:17 | 22.83136 | 96.36373 | 40891 ft | 525 kts | 83° |
| 2026-04-29 19:17 | 22.84016 | 96.44243 | 40899 ft | 525 kts | 83° |
| 2026-04-29 19:18 | 22.84892 | 96.52111 | 40904 ft | 525 kts | 83° |
| 2026-04-29 19:18 | 22.85759 | 96.59918 | 40910 ft | 525 kts | 83° |
| 2026-04-29 19:19 | 22.86629 | 96.67811 | 40916 ft | 525 kts | 83° |
| 2026-04-29 19:19 | 22.87493 | 96.75678 | 40917 ft | 525 kts | 83° |
| 2026-04-29 19:20 | 22.88348 | 96.83502 | 40927 ft | 525 kts | 83° |
| 2026-04-29 19:20 | 22.89208 | 96.91402 | 40932 ft | 525 kts | 83° |
| 2026-04-29 19:21 | 22.89917 | 96.97943 | 40934 ft | 525 kts | 83° |
| 2026-04-29 19:21 | 22.90762 | 97.05780 | 40939 ft | 525 kts | 83° |
| 2026-04-29 19:22 | 22.91608 | 97.13656 | 40935 ft | 524 kts | 83° |
| 2026-04-29 19:22 | 22.92449 | 97.21525 | 40941 ft | 524 kts | 83° |
| 2026-04-29 19:23 | 22.93284 | 97.29383 | 40943 ft | 524 kts | 83° |
| 2026-04-29 19:23 | 22.94112 | 97.37190 | 40937 ft | 523 kts | 83° |
| 2026-04-29 19:24 | 22.94938 | 97.45040 | 40935 ft | 523 kts | 83° |
| 2026-04-29 19:24 | 22.95762 | 97.52899 | 40934 ft | 523 kts | 83° |
| 2026-04-29 19:25 | 22.96575 | 97.60690 | 40929 ft | 522 kts | 83° |
| 2026-04-29 19:25 | 22.97390 | 97.68536 | 40929 ft | 522 kts | 83° |
| 2026-04-29 19:26 | 22.98570 | 97.76300 | 40933 ft | 521 kts | 72° |
| 2026-04-29 19:26 | 23.00897 | 97.83741 | 40938 ft | 520 kts | 69° |
| 2026-04-29 19:27 | 23.03413 | 97.91054 | 40944 ft | 519 kts | 68° |
| 2026-04-29 19:27 | 23.05962 | 97.98395 | 40946 ft | 519 kts | 68° |
| 2026-04-29 19:28 | 23.08496 | 98.05765 | 40949 ft | 519 kts | 68° |
| 2026-04-29 19:28 | 23.11009 | 98.13131 | 40952 ft | 519 kts | 68° |
| 2026-04-29 19:29 | 23.13497 | 98.20447 | 40955 ft | 518 kts | 68° |
| 2026-04-29 19:29 | 23.15997 | 98.27810 | 40956 ft | 518 kts | 69° |
| 2026-04-29 19:30 | 23.18480 | 98.35132 | 40953 ft | 518 kts | 68° |
| 2026-04-29 19:30 | 23.20976 | 98.42503 | 40957 ft | 518 kts | 69° |
| 2026-04-29 19:31 | 23.23467 | 98.49870 | 40955 ft | 519 kts | 69° |
| 2026-04-29 19:31 | 23.25952 | 98.57238 | 40955 ft | 519 kts | 69° |
| 2026-04-29 19:32 | 23.28419 | 98.64566 | 40959 ft | 518 kts | 69° |
| 2026-04-29 19:32 | 23.30897 | 98.71939 | 40951 ft | 518 kts | 69° |
| 2026-04-29 19:33 | 23.33368 | 98.79298 | 40957 ft | 518 kts | 69° |
| 2026-04-29 19:33 | 23.35835 | 98.86661 | 40961 ft | 517 kts | 69° |
| 2026-04-29 19:34 | 23.38293 | 98.94026 | 40965 ft | 517 kts | 69° |
| 2026-04-29 19:34 | 23.40629 | 99.01434 | 40973 ft | 517 kts | 70° |
| 2026-04-29 19:35 | 23.42901 | 99.08821 | 40975 ft | 517 kts | 70° |
| 2026-04-29 19:35 | 23.45198 | 99.16248 | 40977 ft | 516 kts | 70° |
| 2026-04-29 19:36 | 23.47506 | 99.23667 | 40982 ft | 516 kts | 70° |
| 2026-04-29 19:36 | 23.49799 | 99.31032 | 40984 ft | 516 kts | 70° |
| 2026-04-29 19:37 | 23.52115 | 99.38446 | 40988 ft | 516 kts | 69° |
| 2026-04-29 19:37 | 23.55247 | 99.45455 | 40993 ft | 513 kts | 59° |
| 2026-04-29 19:38 | 23.58755 | 99.52253 | 40996 ft | 514 kts | 58° |
| 2026-04-29 19:38 | 23.62318 | 99.59016 | 40996 ft | 514 kts | 58° |
| 2026-04-29 19:39 | 23.65851 | 99.65756 | 41000 ft | 514 kts | 58° |
| 2026-04-29 19:39 | 23.69392 | 99.72549 | 41002 ft | 515 kts | 58° |
| 2026-04-29 19:40 | 23.72934 | 99.79366 | 41009 ft | 515 kts | 58° |
| 2026-04-29 19:40 | 23.76465 | 99.86173 | 41007 ft | 515 kts | 58° |
| 2026-04-29 19:41 | 23.79991 | 99.92981 | 41019 ft | 515 kts | 58° |
| 2026-04-29 19:41 | 23.83517 | 99.99794 | 41020 ft | 515 kts | 58° |
| 2026-04-29 19:42 | 23.87025 | 100.06580 | 41015 ft | 516 kts | 58° |
| 2026-04-29 19:42 | 23.90555 | 100.13418 | 41018 ft | 516 kts | 58° |
| 2026-04-29 19:43 | 23.94082 | 100.20264 | 41020 ft | 516 kts | 58° |
| 2026-04-29 19:43 | 23.97605 | 100.27111 | 41027 ft | 516 kts | 58° |
| 2026-04-29 19:44 | 24.01111 | 100.33929 | 41034 ft | 516 kts | 58° |
| 2026-04-29 19:44 | 24.03443 | 100.38473 | 41036 ft | 516 kts | 58° |
| 2026-04-29 19:45 | 24.11324 | 100.53862 | 41047 ft | 516 kts | 58° |
| 2026-04-29 19:46 | 24.14821 | 100.60747 | 41051 ft | 517 kts | 59° |
| 2026-04-29 19:46 | 24.18281 | 100.67664 | 41051 ft | 517 kts | 59° |
| 2026-04-29 19:47 | 24.21714 | 100.74539 | 41062 ft | 517 kts | 59° |
| 2026-04-29 19:47 | 24.25178 | 100.81472 | 41066 ft | 517 kts | 59° |
| 2026-04-29 19:48 | 24.28635 | 100.88396 | 41071 ft | 517 kts | 59° |
| 2026-04-29 19:48 | 24.32095 | 100.95330 | 41076 ft | 518 kts | 59° |
| 2026-04-29 19:49 | 24.35532 | 101.02230 | 41080 ft | 518 kts | 59° |
| 2026-04-29 19:49 | 24.38983 | 101.09172 | 41083 ft | 518 kts | 59° |
| 2026-04-29 19:50 | 24.42439 | 101.16132 | 41092 ft | 518 kts | 59° |
| 2026-04-29 19:50 | 24.45868 | 101.23049 | 41094 ft | 518 kts | 59° |
| 2026-04-29 19:51 | 24.49314 | 101.30009 | 41099 ft | 518 kts | 59° |
| 2026-04-29 19:51 | 24.52760 | 101.36978 | 41104 ft | 518 kts | 59° |
| 2026-04-29 19:52 | 24.56176 | 101.43900 | 41110 ft | 518 kts | 59° |
| 2026-04-29 19:52 | 24.59615 | 101.50878 | 41115 ft | 518 kts | 59° |
| 2026-04-29 19:53 | 24.62149 | 101.58326 | 41118 ft | 523 kts | 78° |
| 2026-04-29 19:53 | 24.62909 | 101.66245 | 41123 ft | 524 kts | 85° |
| 2026-04-29 19:54 | 24.63434 | 101.78267 | 41134 ft | 524 kts | 87° |
| 2026-04-29 19:54 | 24.63766 | 101.86229 | 41150 ft | 524 kts | 86° |
| 2026-04-29 19:55 | 24.64127 | 101.94233 | 41150 ft | 524 kts | 86° |
| 2026-04-29 19:55 | 24.64495 | 102.02242 | 41161 ft | 523 kts | 86° |
| 2026-04-29 19:56 | 24.64862 | 102.10257 | 41174 ft | 524 kts | 86° |
| 2026-04-29 19:56 | 24.65220 | 102.18198 | 41182 ft | 523 kts | 86° |
| 2026-04-29 19:57 | 24.65517 | 102.24897 | 41193 ft | 523 kts | 86° |
| 2026-04-29 19:57 | 24.65925 | 102.34210 | 41206 ft | 523 kts | 86° |
| 2026-04-29 19:58 | 24.66269 | 102.42163 | 41212 ft | 523 kts | 86° |
| 2026-04-29 19:58 | 24.66612 | 102.50164 | 41219 ft | 523 kts | 86° |
| 2026-04-29 19:59 | 24.66951 | 102.58173 | 41225 ft | 523 kts | 86° |
| 2026-04-29 19:59 | 24.67413 | 102.66127 | 41235 ft | 523 kts | 85° |
| 2026-04-29 20:00 | 24.67946 | 102.74137 | 41238 ft | 523 kts | 84° |
| 2026-04-29 20:00 | 24.67403 | 102.82093 | 41238 ft | 524 kts | 104° |
| 2026-04-29 20:01 | 24.65166 | 102.89702 | 41239 ft | 523 kts | 111° |
| 2026-04-29 20:01 | 24.62620 | 102.97151 | 41238 ft | 523 kts | 111° |
| 2026-04-29 20:02 | 24.60025 | 103.04637 | 41239 ft | 523 kts | 111° |
| 2026-04-29 20:02 | 24.57892 | 103.10856 | 41238 ft | 523 kts | 111° |
| 2026-04-29 20:03 | 24.55475 | 103.19810 | 41236 ft | 523 kts | 97° |
| 2026-04-29 20:03 | 24.55029 | 103.27735 | 41238 ft | 523 kts | 91° |
| 2026-04-29 20:04 | 24.54892 | 103.35732 | 41239 ft | 523 kts | 90° |
| 2026-04-29 20:04 | 24.54786 | 103.43725 | 41240 ft | 523 kts | 90° |
| 2026-04-29 20:05 | 24.54647 | 103.51709 | 41239 ft | 523 kts | 90° |
| 2026-04-29 20:05 | 24.54486 | 103.59650 | 41238 ft | 522 kts | 91° |
| 2026-04-29 20:06 | 24.54315 | 103.67633 | 41234 ft | 522 kts | 91° |
| 2026-04-29 20:06 | 24.53794 | 103.75597 | 41237 ft | 522 kts | 102° |
| 2026-04-29 20:07 | 24.52295 | 103.83414 | 41229 ft | 522 kts | 103° |
| 2026-04-29 20:07 | 24.50638 | 103.91138 | 41223 ft | 522 kts | 104° |
| 2026-04-29 20:08 | 24.49235 | 103.97593 | 41216 ft | 522 kts | 104° |
| 2026-04-29 20:08 | 24.47289 | 104.06619 | 41210 ft | 522 kts | 103° |
| 2026-04-29 20:09 | 24.45622 | 104.14384 | 41199 ft | 522 kts | 103° |
| 2026-04-29 20:09 | 24.43955 | 104.22148 | 41195 ft | 522 kts | 104° |
| 2026-04-29 20:10 | 24.42287 | 104.29891 | 41184 ft | 522 kts | 104° |
| 2026-04-29 20:10 | 24.40610 | 104.37647 | 41178 ft | 521 kts | 104° |
| 2026-04-29 20:11 | 24.38931 | 104.45396 | 41170 ft | 521 kts | 104° |
| 2026-04-29 20:11 | 24.37257 | 104.53092 | 41162 ft | 521 kts | 104° |
| 2026-04-29 20:12 | 24.35571 | 104.60830 | 41153 ft | 521 kts | 104° |
| 2026-04-29 20:12 | 24.33879 | 104.68581 | 41146 ft | 521 kts | 104° |
| 2026-04-29 20:13 | 24.32469 | 104.75019 | 41136 ft | 522 kts | 104° |
| 2026-04-29 20:13 | 24.30491 | 104.84031 | 41132 ft | 522 kts | 104° |
| 2026-04-29 20:14 | 24.28786 | 104.91782 | 41119 ft | 522 kts | 104° |
| 2026-04-29 20:14 | 24.27088 | 104.99473 | 41121 ft | 522 kts | 104° |
| 2026-04-29 20:15 | 24.25373 | 105.07227 | 41120 ft | 522 kts | 104° |
| 2026-04-29 20:15 | 24.23656 | 105.14976 | 41117 ft | 523 kts | 104° |
| 2026-04-29 20:16 | 24.21934 | 105.22720 | 41119 ft | 523 kts | 104° |
| 2026-04-29 20:16 | 24.20121 | 105.30401 | 41119 ft | 523 kts | 106° |
| 2026-04-29 20:17 | 24.18222 | 105.38087 | 41119 ft | 523 kts | 106° |
| 2026-04-29 20:17 | 24.16330 | 105.45783 | 41111 ft | 523 kts | 106° |
| 2026-04-29 20:18 | 24.14458 | 105.53456 | 41114 ft | 523 kts | 106° |
| 2026-04-29 20:18 | 24.12581 | 105.61163 | 41113 ft | 523 kts | 105° |
| 2026-04-29 20:19 | 24.10704 | 105.68850 | 41113 ft | 523 kts | 106° |
| 2026-04-29 20:19 | 24.08958 | 105.76591 | 41110 ft | 523 kts | 103° |
| 2026-04-29 20:20 | 24.07722 | 105.83080 | 41113 ft | 523 kts | 102° |
| 2026-04-29 20:20 | 24.06007 | 105.92143 | 41104 ft | 523 kts | 103° |
| 2026-04-29 20:21 | 24.04476 | 105.99940 | 41104 ft | 523 kts | 103° |
| 2026-04-29 20:21 | 24.03184 | 106.06410 | 41103 ft | 523 kts | 103° |
| 2026-04-29 20:22 | 24.01356 | 106.15516 | 41105 ft | 523 kts | 103° |
| 2026-04-29 20:22 | 23.99794 | 106.23288 | 41107 ft | 523 kts | 103° |
| 2026-04-29 20:23 | 23.98230 | 106.31066 | 41112 ft | 523 kts | 103° |
| 2026-04-29 20:23 | 23.96672 | 106.38786 | 41111 ft | 523 kts | 103° |
| 2026-04-29 20:24 | 23.95101 | 106.46550 | 41111 ft | 523 kts | 103° |
| 2026-04-29 20:24 | 23.93522 | 106.54327 | 41115 ft | 523 kts | 103° |
| 2026-04-29 20:25 | 23.92261 | 106.62104 | 41117 ft | 523 kts | 96° |
| 2026-04-29 20:25 | 23.91643 | 106.70040 | 41118 ft | 523 kts | 94° |
| 2026-04-29 20:26 | 23.91217 | 106.76638 | 41118 ft | 524 kts | 94° |
| 2026-04-29 20:26 | 23.90710 | 106.84597 | 41114 ft | 524 kts | 94° |
| 2026-04-29 20:27 | 23.90275 | 106.91208 | 41118 ft | 524 kts | 94° |
| 2026-04-29 20:27 | 23.89651 | 107.00465 | 41114 ft | 524 kts | 95° |
| 2026-04-29 20:28 | 23.89106 | 107.08428 | 41121 ft | 524 kts | 95° |
| 2026-04-29 20:28 | 23.88562 | 107.16330 | 41117 ft | 524 kts | 95° |
| 2026-04-29 20:29 | 23.88012 | 107.24282 | 41121 ft | 524 kts | 95° |
| 2026-04-29 20:29 | 23.87460 | 107.32185 | 41123 ft | 524 kts | 95° |
| 2026-04-29 20:30 | 23.86901 | 107.40128 | 41123 ft | 524 kts | 95° |
| 2026-04-29 20:30 | 23.86338 | 107.48066 | 41124 ft | 524 kts | 95° |
| 2026-04-29 20:31 | 23.85772 | 107.56007 | 41124 ft | 524 kts | 95° |
| 2026-04-29 20:31 | 23.85200 | 107.63963 | 41124 ft | 524 kts | 95° |
| 2026-04-29 20:32 | 23.84628 | 107.71867 | 41125 ft | 525 kts | 95° |
| 2026-04-29 20:32 | 23.84048 | 107.79821 | 41123 ft | 525 kts | 95° |
| 2026-04-29 20:33 | 23.83475 | 107.87769 | 41125 ft | 525 kts | 94° |
| 2026-04-29 20:33 | 23.83061 | 107.95749 | 41125 ft | 525 kts | 93° |
| 2026-04-29 20:34 | 23.82704 | 108.03676 | 41127 ft | 525 kts | 93° |
| 2026-04-29 20:34 | 23.82318 | 108.11667 | 41128 ft | 526 kts | 94° |
| 2026-04-29 20:35 | 23.81909 | 108.19665 | 41127 ft | 526 kts | 94° |
| 2026-04-29 20:35 | 23.81467 | 108.27593 | 41128 ft | 526 kts | 94° |
| 2026-04-29 20:36 | 23.81009 | 108.35559 | 41131 ft | 525 kts | 94° |
| 2026-04-29 20:36 | 23.80550 | 108.43542 | 41121 ft | 525 kts | 94° |
| 2026-04-29 20:37 | 23.80096 | 108.51480 | 41120 ft | 525 kts | 94° |
| 2026-04-29 20:37 | 23.79636 | 108.59446 | 41120 ft | 525 kts | 94° |
| 2026-04-29 20:38 | 23.79172 | 108.67429 | 41120 ft | 525 kts | 94° |
| 2026-04-29 20:38 | 23.78707 | 108.75337 | 41124 ft | 525 kts | 94° |
| 2026-04-29 20:39 | 23.78235 | 108.83308 | 41120 ft | 525 kts | 94° |
| 2026-04-29 20:39 | 23.77759 | 108.91272 | 41118 ft | 525 kts | 94° |
| 2026-04-29 20:40 | 23.77281 | 108.99187 | 41117 ft | 525 kts | 94° |
| 2026-04-29 20:40 | 23.76797 | 109.07145 | 41111 ft | 525 kts | 94° |
| 2026-04-29 20:41 | 23.76145 | 109.15085 | 41120 ft | 524 kts | 102° |
| 2026-04-29 20:41 | 23.74734 | 109.22830 | 41111 ft | 523 kts | 103° |
| 2026-04-29 20:42 | 23.73166 | 109.30596 | 41107 ft | 523 kts | 104° |
| 2026-04-29 20:42 | 23.71577 | 109.38349 | 41104 ft | 523 kts | 104° |
| 2026-04-29 20:43 | 23.69996 | 109.46104 | 41104 ft | 523 kts | 104° |
| 2026-04-29 20:43 | 23.68463 | 109.53653 | 41102 ft | 523 kts | 104° |
| 2026-04-29 20:44 | 23.67210 | 109.59820 | 41101 ft | 522 kts | 104° |
| 2026-04-29 20:44 | 23.65629 | 109.67575 | 41103 ft | 523 kts | 104° |
| 2026-04-29 20:45 | 23.64039 | 109.75265 | 41095 ft | 523 kts | 104° |
| 2026-04-29 20:45 | 23.62426 | 109.83036 | 41100 ft | 523 kts | 104° |
| 2026-04-29 20:46 | 23.60818 | 109.90786 | 41091 ft | 524 kts | 104° |
| 2026-04-29 20:46 | 23.59217 | 109.98489 | 41090 ft | 524 kts | 104° |
| 2026-04-29 20:47 | 23.57600 | 110.06247 | 41086 ft | 524 kts | 105° |
| 2026-04-29 20:47 | 23.55976 | 110.14017 | 41086 ft | 525 kts | 105° |
| 2026-04-29 20:48 | 23.54359 | 110.21736 | 41085 ft | 525 kts | 105° |
| 2026-04-29 20:48 | 23.52723 | 110.29520 | 41079 ft | 525 kts | 105° |
| 2026-04-29 20:49 | 23.51087 | 110.37291 | 41073 ft | 526 kts | 105° |
| 2026-04-29 20:49 | 23.49502 | 110.45019 | 41073 ft | 526 kts | 104° |
| 2026-04-29 20:50 | 23.47929 | 110.52816 | 41073 ft | 526 kts | 104° |
| 2026-04-29 20:50 | 23.46348 | 110.60610 | 41076 ft | 527 kts | 105° |
| 2026-04-29 20:51 | 23.44756 | 110.68406 | 41079 ft | 527 kts | 105° |
| 2026-04-29 20:51 | 23.43155 | 110.76202 | 41072 ft | 527 kts | 105° |
| 2026-04-29 20:53 | 23.38176 | 110.99668 | 41068 ft | 527 kts | 105° |
| 2026-04-29 20:53 | 23.36518 | 111.07468 | 41071 ft | 528 kts | 105° |
| 2026-04-29 20:54 | 23.34055 | 111.19105 | 41068 ft | 528 kts | 105° |
| 2026-04-29 20:55 | 23.32462 | 111.26926 | 41064 ft | 528 kts | 105° |
| 2026-04-29 20:55 | 23.30875 | 111.34736 | 40940 ft | 526 kts | 105° |
| 2026-04-29 20:55 | 23.30091 | 111.38576 | 40701 ft | 526 kts | 105° |
| 2026-04-29 20:56 | 23.29295 | 111.42457 | 40194 ft | 526 kts | 105° |
| 2026-04-29 20:56 | 23.28494 | 111.46351 | 39594 ft | 526 kts | 105° |
| 2026-04-29 20:56 | 23.27694 | 111.50229 | 38950 ft | 527 kts | 105° |
| 2026-04-29 20:56 | 23.26888 | 111.54129 | 38215 ft | 529 kts | 105° |
| 2026-04-29 20:57 | 23.26076 | 111.58026 | 37506 ft | 528 kts | 105° |
| 2026-04-29 20:57 | 23.25250 | 111.61930 | 36804 ft | 529 kts | 105° |
| 2026-04-29 20:57 | 23.24420 | 111.65830 | 36102 ft | 529 kts | 106° |
| 2026-04-29 20:57 | 23.23586 | 111.69742 | 35363 ft | 531 kts | 106° |
| 2026-04-29 20:58 | 23.22758 | 111.73621 | 34540 ft | 534 kts | 106° |
| 2026-04-29 20:58 | 23.21916 | 111.77572 | 33626 ft | 537 kts | 105° |
| 2026-04-29 20:58 | 23.21068 | 111.81542 | 32696 ft | 539 kts | 105° |
| 2026-04-29 20:58 | 23.20225 | 111.85527 | 31783 ft | 540 kts | 105° |
| 2026-04-29 20:59 | 23.19393 | 111.89536 | 30835 ft | 542 kts | 104° |
| 2026-04-29 20:59 | 23.18563 | 111.93546 | 29812 ft | 545 kts | 104° |
| 2026-04-29 20:59 | 23.17730 | 111.97560 | 28884 ft | 543 kts | 104° |
| 2026-04-29 20:59 | 23.16911 | 112.01501 | 28167 ft | 538 kts | 104° |
| 2026-04-29 21:00 | 23.16090 | 112.05445 | 27470 ft | 532 kts | 104° |
| 2026-04-29 21:00 | 23.15273 | 112.09356 | 26758 ft | 527 kts | 104° |
| 2026-04-29 21:00 | 23.14464 | 112.13224 | 26055 ft | 522 kts | 104° |
| 2026-04-29 21:00 | 23.13661 | 112.17058 | 25354 ft | 518 kts | 104° |
| 2026-04-29 21:01 | 23.12861 | 112.20866 | 24663 ft | 513 kts | 104° |
| 2026-04-29 21:01 | 23.12070 | 112.24633 | 23977 ft | 509 kts | 104° |
| 2026-04-29 21:01 | 23.11283 | 112.28374 | 23230 ft | 505 kts | 104° |
| 2026-04-29 21:01 | 23.10504 | 112.32072 | 22507 ft | 500 kts | 104° |
| 2026-04-29 21:02 | 23.09742 | 112.35693 | 21831 ft | 493 kts | 104° |
| 2026-04-29 21:02 | 23.08977 | 112.39316 | 21147 ft | 487 kts | 104° |
| 2026-04-29 21:02 | 23.08223 | 112.42887 | 20471 ft | 482 kts | 104° |
| 2026-04-29 21:02 | 23.07421 | 112.46400 | 19780 ft | 476 kts | 108° |
| 2026-04-29 21:03 | 23.06047 | 112.49639 | 19126 ft | 467 kts | 125° |
| 2026-04-29 21:03 | 23.04056 | 112.52322 | 18475 ft | 459 kts | 136° |
| 2026-04-29 21:03 | 23.01853 | 112.54813 | 17724 ft | 454 kts | 137° |
| 2026-04-29 21:03 | 22.99664 | 112.57268 | 17036 ft | 449 kts | 136° |
| 2026-04-29 21:04 | 22.97521 | 112.59700 | 16370 ft | 443 kts | 136° |
| 2026-04-29 21:04 | 22.95423 | 112.62137 | 15706 ft | 439 kts | 133° |
| 2026-04-29 21:04 | 22.94230 | 112.63906 | 15322 ft | 438 kts | 123° |
| 2026-04-29 21:04 | 22.93060 | 112.66957 | 14571 ft | 439 kts | 104° |
| 2026-04-29 21:05 | 22.92468 | 112.71292 | 13596 ft | 436 kts | 96° |
| 2026-04-29 21:05 | 22.92141 | 112.74538 | 12856 ft | 430 kts | 97° |
| 2026-04-29 21:05 | 22.91910 | 112.76710 | 12385 ft | 426 kts | 97° |
| 2026-04-29 21:05 | 22.91558 | 112.79848 | 11700 ft | 421 kts | 97° |
| 2026-04-29 21:06 | 22.91193 | 112.82982 | 11175 ft | 412 kts | 98° |
| 2026-04-29 21:06 | 22.90834 | 112.85992 | 11051 ft | 391 kts | 98° |
| 2026-04-29 21:06 | 22.90489 | 112.88849 | 10950 ft | 372 kts | 98° |
| 2026-04-29 21:06 | 22.90158 | 112.91570 | 10829 ft | 356 kts | 98° |
| 2026-04-29 21:07 | 22.89837 | 112.94181 | 10682 ft | 342 kts | 99° |
| 2026-04-29 21:07 | 22.89512 | 112.96682 | 10523 ft | 329 kts | 98° |
| 2026-04-29 21:07 | 22.89216 | 112.99103 | 10356 ft | 318 kts | 98° |
| 2026-04-29 21:07 | 22.88928 | 113.01476 | 9992 ft | 316 kts | 98° |
| 2026-04-29 21:08 | 22.88639 | 113.03840 | 9607 ft | 315 kts | 98° |
| 2026-04-29 21:08 | 22.88353 | 113.06160 | 9296 ft | 312 kts | 98° |
| 2026-04-29 21:08 | 22.88070 | 113.08446 | 9166 ft | 299 kts | 98° |
| 2026-04-29 21:08 | 22.87798 | 113.10639 | 9047 ft | 288 kts | 98° |
| 2026-04-29 21:09 | 22.87632 | 113.12760 | 8905 ft | 277 kts | 86° |
| 2026-04-29 21:09 | 22.88237 | 113.14663 | 8745 ft | 264 kts | 51° |
| 2026-04-29 21:09 | 22.89514 | 113.16019 | 8568 ft | 253 kts | 35° |
| 2026-04-29 21:09 | 22.90880 | 113.17178 | 8311 ft | 247 kts | 34° |
| 2026-04-29 21:10 | 22.92235 | 113.18316 | 7935 ft | 245 kts | 34° |
| 2026-04-29 21:10 | 22.93709 | 113.19159 | 7570 ft | 240 kts | 14° |
| 2026-04-29 21:10 | 22.95307 | 113.19632 | 7238 ft | 236 kts | 9° |
| 2026-04-29 21:10 | 22.96904 | 113.20039 | 6921 ft | 234 kts | 9° |
| 2026-04-29 21:11 | 22.98499 | 113.20449 | 6871 ft | 236 kts | 10° |
| 2026-04-29 21:11 | 23.00093 | 113.20870 | 6769 ft | 235 kts | 10° |
| 2026-04-29 21:11 | 23.01678 | 113.21289 | 6425 ft | 234 kts | 10° |
| 2026-04-29 21:11 | 23.03271 | 113.21710 | 6042 ft | 234 kts | 11° |
| 2026-04-29 21:12 | 23.04832 | 113.22133 | 5754 ft | 230 kts | 11° |
| 2026-04-29 21:12 | 23.06385 | 113.22551 | 5387 ft | 228 kts | 11° |
| 2026-04-29 21:12 | 23.07900 | 113.22932 | 5092 ft | 224 kts | 10° |
| 2026-04-29 21:12 | 23.09399 | 113.23320 | 4882 ft | 218 kts | 11° |
| 2026-04-29 21:13 | 23.10856 | 113.23709 | 4590 ft | 213 kts | 12° |
| 2026-04-29 21:13 | 23.12283 | 113.24093 | 4310 ft | 208 kts | 12° |
| 2026-04-29 21:13 | 23.13674 | 113.24468 | 3995 ft | 204 kts | 13° |
| 2026-04-29 21:13 | 23.15022 | 113.24834 | 3697 ft | 200 kts | 13° |
| 2026-04-29 21:14 | 23.16367 | 113.25201 | 3433 ft | 199 kts | 13° |
| 2026-04-29 21:14 | 23.17690 | 113.25561 | 3291 ft | 190 kts | 14° |
| 2026-04-29 21:14 | 23.18930 | 113.25897 | 3171 ft | 177 kts | 14° |
| 2026-04-29 21:14 | 23.20085 | 113.26209 | 3113 ft | 167 kts | 14° |
| 2026-04-29 21:15 | 23.21207 | 113.26512 | 3111 ft | 165 kts | 14° |
| 2026-04-29 21:15 | 23.22277 | 113.26799 | 3042 ft | 151 kts | 14° |
| 2026-04-29 21:15 | 23.23271 | 113.27067 | 2867 ft | 143 kts | 14° |
| 2026-04-29 21:15 | 23.24215 | 113.27323 | 2668 ft | 136 kts | 14° |
| 2026-04-29 21:16 | 23.25118 | 113.27568 | 2481 ft | 131 kts | 14° |
| 2026-04-29 21:16 | 23.25970 | 113.27816 | 2462 ft | 125 kts | 17° |
| 2026-04-29 21:16 | 23.26629 | 113.28527 | 2620 ft | 157 kts | 61° |
| 2026-04-29 21:16 | 23.26809 | 113.29801 | 3130 ft | 179 kts | 84° |
| 2026-04-29 21:17 | 23.26785 | 113.31189 | 3705 ft | 188 kts | 90° |
| 2026-04-29 21:17 | 23.26282 | 113.32529 | 3976 ft | 197 kts | 126° |
| 2026-04-29 21:17 | 23.25249 | 113.33494 | 4012 ft | 199 kts | 144° |
| 2026-04-29 21:17 | 23.24082 | 113.34319 | 4013 ft | 200 kts | 146° |
| 2026-04-29 21:18 | 23.22802 | 113.34925 | 4005 ft | 204 kts | 171° |
| 2026-04-29 21:18 | 23.21399 | 113.34816 | 4014 ft | 202 kts | 193° |
| 2026-04-29 21:18 | 23.20039 | 113.34441 | 4007 ft | 202 kts | 196° |
| 2026-04-29 21:18 | 23.18684 | 113.34041 | 4008 ft | 202 kts | 197° |
| 2026-04-29 21:19 | 23.17325 | 113.33641 | 4003 ft | 202 kts | 197° |
| 2026-04-29 21:19 | 23.15971 | 113.33234 | 3999 ft | 202 kts | 197° |
| 2026-04-29 21:19 | 23.14618 | 113.32825 | 3998 ft | 202 kts | 197° |
| 2026-04-29 21:19 | 23.13265 | 113.32415 | 3995 ft | 202 kts | 197° |
| 2026-04-29 21:20 | 23.11930 | 113.32010 | 3990 ft | 202 kts | 197° |
| 2026-04-29 21:20 | 23.10577 | 113.31600 | 3991 ft | 202 kts | 197° |
| 2026-04-29 21:20 | 23.09232 | 113.31154 | 3981 ft | 202 kts | 203° |
| 2026-04-29 21:20 | 23.08089 | 113.30298 | 3980 ft | 200 kts | 231° |
| 2026-04-29 21:21 | 23.07528 | 113.28964 | 3982 ft | 194 kts | 269° |
| 2026-04-29 21:21 | 23.07761 | 113.27557 | 3990 ft | 188 kts | 290° |
| 2026-04-29 21:21 | 23.08274 | 113.26256 | 3987 ft | 187 kts | 300° |
| 2026-04-29 21:21 | 23.08998 | 113.25092 | 3988 ft | 185 kts | 314° |
| 2026-04-29 21:22 | 23.09983 | 113.24218 | 3986 ft | 183 kts | 330° |
| 2026-04-29 21:22 | 23.11168 | 113.23804 | 3958 ft | 181 kts | 354° |
| 2026-04-29 21:22 | 23.12394 | 113.23832 | 3847 ft | 172 kts | 6° |
| 2026-04-29 21:22 | 23.13559 | 113.24064 | 3700 ft | 169 kts | 12° |
| 2026-04-29 21:23 | 23.14702 | 113.24360 | 3604 ft | 169 kts | 14° |
| 2026-04-29 21:23 | 23.15840 | 113.24672 | 3542 ft | 168 kts | 13° |
| 2026-04-29 21:23 | 23.16975 | 113.24980 | 3466 ft | 167 kts | 13° |
| 2026-04-29 21:23 | 23.18105 | 113.25281 | 3404 ft | 167 kts | 13° |
| 2026-04-29 21:24 | 23.19230 | 113.25579 | 3319 ft | 166 kts | 13° |
| 2026-04-29 21:24 | 23.20352 | 113.25877 | 3247 ft | 166 kts | 13° |
| 2026-04-29 21:24 | 23.21469 | 113.26176 | 3185 ft | 165 kts | 14° |
| 2026-04-29 21:24 | 23.22581 | 113.26476 | 3094 ft | 164 kts | 14° |
| 2026-04-29 21:25 | 23.23669 | 113.26772 | 2900 ft | 157 kts | 14° |
| 2026-04-29 21:25 | 23.24698 | 113.27052 | 2700 ft | 147 kts | 15° |
| 2026-04-29 21:25 | 23.25645 | 113.27309 | 2514 ft | 136 kts | 14° |
| 2026-04-29 21:25 | 23.26544 | 113.27551 | 2326 ft | 134 kts | 14° |
| 2026-04-29 21:26 | 23.27445 | 113.27795 | 2144 ft | 133 kts | 14° |
| 2026-04-29 21:26 | 23.28346 | 113.28038 | 1967 ft | 134 kts | 14° |
| 2026-04-29 21:26 | 23.29252 | 113.28283 | 1786 ft | 134 kts | 14° |
| 2026-04-29 21:26 | 23.30162 | 113.28530 | 1606 ft | 135 kts | 14° |
| 2026-04-29 21:27 | 23.31074 | 113.28777 | 1422 ft | 134 kts | 14° |
| 2026-04-29 21:27 | 23.31968 | 113.29018 | 1249 ft | 132 kts | 14° |
| 2026-04-29 21:27 | 23.32825 | 113.29251 | 1068 ft | 122 kts | 14° |
| 2026-04-29 21:27 | 23.33636 | 113.29473 | 898 ft | 121 kts | 15° |
| 2026-04-29 21:28 | 23.34458 | 113.29713 | 712 ft | 125 kts | 14° |
| 2026-04-29 21:28 | 23.35315 | 113.29943 | 561 ft | 129 kts | 13° |
| 2026-04-29 21:28 | 23.36203 | 113.30169 | 394 ft | 132 kts | 13° |
| 2026-04-29 21:28 | 23.36493 | 113.30248 | 314 ft | 131 kts | 13° |
| 2026-04-29 21:29 | 23.37925 | 113.30634 | 86 ft | 119 kts | 13° |
| 2026-04-29 21:29 | 23.38653 | 113.30829 | 54 ft | 84 kts | 14° |
| 2026-04-29 21:29 | 23.39007 | 113.30927 | 56 ft | 37 kts | 14° |
| 2026-04-29 21:29 | 23.39264 | 113.30967 | 55 ft | 38 kts | 356° |
| 2026-04-29 21:30 | 23.39518 | 113.30910 | 55 ft | 35 kts | 347° |
| 2026-04-29 21:30 | 23.39755 | 113.30928 | 55 ft | 35 kts | 15° |
| 2026-04-29 21:30 | 23.39951 | 113.30978 | 54 ft | 21 kts | 11° |
| 2026-04-29 21:30 | 23.40104 | 113.31015 | 57 ft | 24 kts | 15° |
| 2026-04-29 21:31 | 23.40268 | 113.31060 | 55 ft | 19 kts | 5° |
| 2026-04-29 21:31 | 23.40338 | 113.30972 | 56 ft | 17 kts | 287° |
| 2026-04-29 21:31 | 23.40366 | 113.30851 | 57 ft | 16 kts | 284° |
| 2026-04-29 21:31 | 23.40395 | 113.30724 | 57 ft | 18 kts | 284° |
| 2026-04-29 21:32 | 23.40427 | 113.30585 | 55 ft | 19 kts | 283° |
| 2026-04-29 21:32 | 23.40440 | 113.30468 | 56 ft | 8 kts | 244° |
| 2026-04-29 21:32 | 23.40409 | 113.30425 | 53 ft | 10 kts | 227° |
| 2026-04-29 21:32 | 23.40336 | 113.30371 | 55 ft | 14 kts | 178° |
| 2026-04-29 21:33 | 23.40249 | 113.30412 | 52 ft | 13 kts | 155° |
| 2026-04-29 21:33 | 23.40195 | 113.30441 | 55 ft | 0 kts | 153° |